Back to Top

Language: 

My Weather Underground Personal Weather Station Historical Data with Graphs...

Delerius Weather Station Historical Data
Daily Summary for January 24, 2018 Units:  English    Metric   Both
« Previous Day
Next Day »
Daily Weekly Monthly Yearly Custom
  High: Low: Average:
Temperature: 55.2 °F 43.0 °F 47.1 °F
Dew Point: 50.4 °F 37.7 °F 42.3 °F
Humidity: 90 % 78 % 83 %
Wind Speed: 28.0 mph 9.0 mph 15.4 mph
Wind Gust: 46.0 mph - -
Wind:- - SW
Pressure: 29.69 in 29.33 in -
Precipitation: 0.11 in    
Historical Graphs
 
 
Tabular Data for January 24, 2018
Time Temperature Dew Point Pressure Wind Wind Speed Wind Gust Humidity Rainfall Rate (Hourly) solar Conditions
00:04 50.2 °F 45.2 °F 29.69 in SSW 11.0 mph 15.0 mph 83 % 0.00 in 0 W/m2
00:09 50.2 °F 45.2 °F 29.69 in SW 12.0 mph 19.0 mph 83 % 0.00 in 0 W/m2
00:24 50.4 °F 45.4 °F 29.67 in SW 12.0 mph 20.0 mph 83 % 0.00 in 0 W/m2
00:34 50.4 °F 45.7 °F 29.67 in SSW 10.0 mph 20.0 mph 84 % 0.00 in 0 W/m2
00:39 50.4 °F 45.7 °F 29.66 in SSW 14.0 mph 25.0 mph 84 % 0.00 in 0 W/m2
00:44 50.5 °F 45.9 °F 29.66 in SW 14.0 mph 25.0 mph 84 % 0.00 in 0 W/m2
00:49 50.5 °F 45.6 °F 29.66 in SW 12.0 mph 19.0 mph 83 % 0.00 in 0 W/m2
00:59 50.7 °F 45.7 °F 29.65 in SW 16.0 mph 27.0 mph 83 % 0.00 in 0 W/m2
01:09 50.7 °F 45.7 °F 29.65 in SSW 13.0 mph 22.0 mph 83 % 0.00 in 0 W/m2
01:14 50.5 °F 45.6 °F 29.64 in SW 15.0 mph 26.0 mph 83 % 0.00 in 0 W/m2
01:19 50.5 °F 45.6 °F 29.63 in SSW 19.0 mph 27.0 mph 83 % 0.00 in 0 W/m2
01:24 50.7 °F 45.7 °F 29.63 in SW 14.0 mph 24.0 mph 83 % 0.00 in 0 W/m2
01:29 50.7 °F 45.7 °F 29.63 in SW 17.0 mph 27.0 mph 83 % 0.00 in 0 W/m2
01:39 50.5 °F 45.6 °F 29.61 in SW 14.0 mph 23.0 mph 83 % 0.00 in 0 W/m2
01:44 50.5 °F 45.6 °F 29.60 in SW 14.0 mph 28.0 mph 83 % 0.00 in 0 W/m2
01:49 50.5 °F 45.6 °F 29.60 in SSW 17.0 mph 27.0 mph 83 % 0.00 in 0 W/m2
01:54 50.4 °F 45.4 °F 29.59 in SSW 15.0 mph 26.0 mph 83 % 0.00 in 0 W/m2
02:04 50.2 °F 45.8 °F 29.58 in SSW 12.0 mph 20.0 mph 85 % 0.00 in 0 W/m2
02:09 49.8 °F 45.5 °F 29.58 in SSW 16.0 mph 29.0 mph 85 % 0.00 in 0 W/m2
02:14 49.8 °F 45.8 °F 29.58 in SW 18.0 mph 28.0 mph 86 % 0.00 in 0 W/m2
02:24 49.6 °F 45.6 °F 29.58 in SSW 17.0 mph 27.0 mph 86 % 0.00 in 0 W/m2
02:29 49.6 °F 45.6 °F 29.57 in SSW 16.0 mph 26.0 mph 86 % 0.00 in 0 W/m2
02:34 49.8 °F 45.8 °F 29.57 in SSW 18.0 mph 31.0 mph 86 % 0.00 in 0 W/m2
02:39 50.0 °F 46.0 °F 29.56 in SSW 18.0 mph 29.0 mph 86 % 0.00 in 0 W/m2
02:44 50.0 °F 46.0 °F 29.55 in SSW 19.0 mph 27.0 mph 86 % 0.00 in 0 W/m2
02:55 50.2 °F 46.2 °F 29.55 in SSW 25.0 mph 37.0 mph 86 % 0.00 in 0 W/m2
03:00 50.2 °F 46.2 °F 29.54 in SSW 21.0 mph 33.0 mph 86 % 0.00 in 0 W/m2
03:04 50.0 °F 46.0 °F 29.54 in SW 21.0 mph 32.0 mph 86 % 0.00 in 0 W/m2
03:10 50.0 °F 46.0 °F 29.54 in SSW 21.0 mph 33.0 mph 86 % 0.00 in 0 W/m2
03:15 50.0 °F 45.7 °F 29.53 in SSW 17.0 mph 29.0 mph 85 % 0.00 in 0 W/m2
03:20 50.0 °F 46.0 °F 29.53 in SSW 20.0 mph 30.0 mph 86 % 0.00 in 0 W/m2
03:25 50.0 °F 46.0 °F 29.52 in SSW 18.0 mph 29.0 mph 86 % 0.00 in 0 W/m2
03:30 50.2 °F 45.8 °F 29.52 in SSW 22.0 mph 32.0 mph 85 % 0.00 in 0 W/m2
03:35 50.2 °F 45.8 °F 29.51 in SSW 22.0 mph 35.0 mph 85 % 0.00 in 0 W/m2
03:40 50.2 °F 45.8 °F 29.50 in SW 23.0 mph 33.0 mph 85 % 0.00 in 0 W/m2
03:45 50.4 °F 46.0 °F 29.50 in SSW 21.0 mph 34.0 mph 85 % 0.00 in 0 W/m2
03:50 50.4 °F 46.0 °F 29.49 in SSW 22.0 mph 36.0 mph 85 % 0.00 in 0 W/m2
03:55 50.4 °F 46.0 °F 29.49 in SSW 16.0 mph 28.0 mph 85 % 0.00 in 0 W/m2
04:00 50.4 °F 46.0 °F 29.48 in SSW 21.0 mph 31.0 mph 85 % 0.00 in 0 W/m2
04:05 50.5 °F 46.2 °F 29.47 in SSW 20.0 mph 29.0 mph 85 % 0.00 in 0 W/m2
04:10 50.7 °F 46.4 °F 29.47 in SSW 21.0 mph 39.0 mph 85 % 0.00 in 0 W/m2
04:20 51.1 °F 46.4 °F 29.46 in SSW 24.0 mph 35.0 mph 84 % 0.00 in 0 W/m2
04:25 51.3 °F 46.6 °F 29.46 in SSW 18.0 mph 31.0 mph 84 % 0.00 in 0 W/m2
04:30 51.3 °F 46.9 °F 29.45 in SSW 26.0 mph 36.0 mph 85 % 0.00 in 0 W/m2
04:50 52.0 °F 47.3 °F 29.43 in SSW 20.0 mph 32.0 mph 84 % 0.00 in 0 W/m2
04:55 52.0 °F 47.3 °F 29.44 in SSW 20.0 mph 32.0 mph 84 % 0.00 in 0 W/m2
05:00 52.2 °F 47.5 °F 29.42 in SSW 24.0 mph 37.0 mph 84 % 0.00 in 0 W/m2
05:05 52.2 °F 47.5 °F 29.42 in SSW 20.0 mph 31.0 mph 84 % 0.00 in 0 W/m2
05:10 52.5 °F 47.8 °F 29.41 in SSW 25.0 mph 41.0 mph 84 % 0.00 in 0 W/m2
05:18 52.9 °F 47.9 °F 29.41 in SSW 26.0 mph 46.0 mph 83 % 0.00 in 0 W/m2
05:28 53.1 °F 48.0 °F 29.40 in SSW 25.0 mph 32.0 mph 83 % 0.00 in 0 W/m2
05:33 53.2 °F 48.2 °F 29.40 in SSW 25.0 mph 36.0 mph 83 % 0.00 in 0 W/m2
05:38 53.4 °F 48.4 °F 29.40 in SSW 23.0 mph 39.0 mph 83 % 0.00 in 0 W/m2
05:48 54.0 °F 48.6 °F 29.40 in SSW 26.0 mph 44.0 mph 82 % 0.00 in 0 W/m2
05:53 54.1 °F 48.4 °F 29.38 in SSW 22.0 mph 44.0 mph 81 % 0.00 in 0 W/m2
06:03 54.5 °F 48.8 °F 29.37 in SSW 24.0 mph 36.0 mph 81 % 0.00 in 0 W/m2
06:08 54.7 °F 49.0 °F 29.38 in SW 24.0 mph 39.0 mph 81 % 0.00 in 0 W/m2
06:13 54.7 °F 49.0 °F 29.38 in SSW 26.0 mph 42.0 mph 81 % 0.00 in 0 W/m2
06:18 54.9 °F 48.8 °F 29.37 in SSW 23.0 mph 40.0 mph 80 % 0.00 in 0 W/m2
06:28 55.0 °F 49.0 °F 29.37 in SW 20.0 mph 33.0 mph 80 % 0.00 in 0 W/m2
06:38 55.2 °F 49.2 °F 29.36 in SW 25.0 mph 36.0 mph 80 % 0.00 in 0 W/m2
06:59 54.9 °F 49.8 °F 29.35 in SW 28.0 mph 41.0 mph 83 % 0.00 in 0 W/m2
07:04 54.7 °F 49.9 °F 29.34 in SW 26.0 mph 41.0 mph 84 % 0.00 in 0 W/m2
07:09 54.3 °F 49.9 °F 29.34 in SSW 22.0 mph 39.0 mph 85 % 0.00 in 0 W/m2
07:19 54.3 °F 49.9 °F 29.33 in SW 23.0 mph 35.0 mph 85 % 0.00 in 0 W/m2
07:24 54.3 °F 49.9 °F 29.33 in SW 19.0 mph 31.0 mph 85 % 0.00 in 0 W/m2
07:29 54.1 °F 50.4 °F 29.34 in SW 21.0 mph 34.0 mph 87 % 0.00 in 0 W/m2
07:34 53.8 °F 50.3 °F 29.33 in SW 22.0 mph 31.0 mph 88 % 0.00 in 0 W/m2
07:39 53.6 °F 50.1 °F 29.35 in SW 17.0 mph 27.0 mph 88 % 0.00 in 0 W/m2
07:44 52.3 °F 48.3 °F 29.38 in WSW 23.0 mph 33.0 mph 86 % 0.01 in 0 W/m2
07:49 50.7 °F 47.3 °F 29.38 in WSW 19.0 mph 29.0 mph 88 % 0.02 in 0 W/m2
07:54 49.8 °F 46.4 °F 29.38 in West 21.0 mph 28.0 mph 88 % 0.02 in 0 W/m2
07:59 49.5 °F 46.1 °F 29.38 in West 18.0 mph 26.0 mph 88 % 0.02 in 0 W/m2
08:04 49.1 °F 45.7 °F 29.39 in West 20.0 mph 31.0 mph 88 % 0.02 in 0 W/m2
08:09 48.9 °F 45.5 °F 29.39 in West 16.0 mph 31.0 mph 88 % 0.02 in 0 W/m2
08:14 48.6 °F 45.5 °F 29.40 in West 18.0 mph 29.0 mph 89 % 0.02 in 5 W/m2
08:24 48.4 °F 45.0 °F 29.40 in WSW 19.0 mph 32.0 mph 88 % 0.02 in 9 W/m2
08:29 48.0 °F 44.9 °F 29.40 in West 14.0 mph 21.0 mph 89 % 0.02 in 7 W/m2
08:39 47.7 °F 44.9 °F 29.40 in WSW 20.0 mph 29.0 mph 90 % 0.03 in 5 W/m2
08:45 47.3 °F 44.2 °F 29.40 in WSW 17.0 mph 26.0 mph 89 % 0.03 in 5 W/m2
08:55 46.8 °F 43.4 °F 29.42 in WSW 18.0 mph 28.0 mph 88 % 0.03 in 7 W/m2
09:05 46.2 °F 42.6 °F 29.41 in WSW 22.0 mph 36.0 mph 87 % 0.04 in 9 W/m2
09:10 46.0 °F 42.7 °F 29.41 in WSW 20.0 mph 31.0 mph 88 % 0.05 in 14 W/m2
09:20 45.9 °F 42.5 °F 29.41 in WSW 18.0 mph 28.0 mph 88 % 0.06 in 18 W/m2
09:25 45.7 °F 42.3 °F 29.42 in WSW 20.0 mph 27.0 mph 88 % 0.06 in 12 W/m2
09:30 45.7 °F 42.3 °F 29.42 in WSW 19.0 mph 26.0 mph 88 % 0.05 in 14 W/m2
09:35 45.3 °F 41.7 °F 29.43 in WSW 20.0 mph 32.0 mph 87 % 0.05 in 18 W/m2
09:40 45.1 °F 41.5 °F 29.42 in WSW 21.0 mph 33.0 mph 87 % 0.04 in 26 W/m2
09:45 45.0 °F 41.6 °F 29.41 in WSW 16.0 mph 27.0 mph 88 % 0.03 in 39 W/m2
09:50 44.8 °F 41.7 °F 29.41 in West 14.0 mph 23.0 mph 89 % 0.03 in 42 W/m2
09:55 44.4 °F 41.4 °F 29.40 in West 16.0 mph 27.0 mph 89 % 0.02 in 35 W/m2
10:00 44.4 °F 41.4 °F 29.41 in WSW 15.0 mph 24.0 mph 89 % 0.03 in 26 W/m2
10:05 44.4 °F 41.7 °F 29.42 in WSW 14.0 mph 21.0 mph 90 % 0.02 in 28 W/m2
10:10 44.4 °F 41.7 °F 29.42 in WSW 15.0 mph 27.0 mph 90 % 0.02 in 28 W/m2
10:15 44.4 °F 41.4 °F 29.43 in WSW 13.0 mph 25.0 mph 89 % 0.02 in 21 W/m2
10:20 44.4 °F 41.4 °F 29.43 in WSW 11.0 mph 20.0 mph 89 % 0.02 in 14 W/m2
10:25 44.4 °F 41.4 °F 29.43 in WSW 14.0 mph 24.0 mph 89 % 0.02 in 21 W/m2
10:30 44.4 °F 41.4 °F 29.44 in SW 14.0 mph 21.0 mph 89 % 0.02 in 21 W/m2
10:35 44.4 °F 41.4 °F 29.43 in WSW 12.0 mph 21.0 mph 89 % 0.03 in 25 W/m2
10:40 44.4 °F 41.4 °F 29.43 in WSW 13.0 mph 22.0 mph 89 % 0.03 in 26 W/m2
10:45 44.4 °F 41.4 °F 29.43 in WSW 9.0 mph 13.0 mph 89 % 0.03 in 37 W/m2
10:50 44.4 °F 41.7 °F 29.43 in WSW 11.0 mph 16.0 mph 90 % 0.03 in 30 W/m2
10:55 44.4 °F 41.7 °F 29.43 in WSW 11.0 mph 15.0 mph 90 % 0.04 in 30 W/m2
11:00 44.4 °F 41.7 °F 29.43 in SW 14.0 mph 21.0 mph 90 % 0.03 in 28 W/m2
11:05 44.4 °F 41.4 °F 29.43 in SW 12.0 mph 21.0 mph 89 % 0.03 in 30 W/m2
11:10 44.4 °F 41.4 °F 29.44 in WSW 13.0 mph 20.0 mph 89 % 0.03 in 21 W/m2
11:15 44.4 °F 41.4 °F 29.44 in WSW 16.0 mph 25.0 mph 89 % 0.02 in 19 W/m2
11:20 44.6 °F 41.3 °F 29.43 in SW 18.0 mph 28.0 mph 88 % 0.02 in 23 W/m2
11:26 44.8 °F 41.1 °F 29.43 in SW 16.0 mph 33.0 mph 87 % 0.02 in 28 W/m2
11:31 45.0 °F 40.7 °F 29.43 in SW 17.0 mph 26.0 mph 85 % 0.01 in 30 W/m2
11:35 45.0 °F 40.7 °F 29.44 in WSW 19.0 mph 28.0 mph 85 % 0.01 in 28 W/m2
11:41 45.1 °F 40.6 °F 29.43 in SW 20.0 mph 32.0 mph 84 % 0.01 in 47 W/m2
11:46 45.1 °F 40.6 °F 29.42 in SW 18.0 mph 32.0 mph 84 % 0.01 in 47 W/m2
11:51 45.1 °F 40.6 °F 29.42 in SW 15.0 mph 23.0 mph 84 % 0.01 in 35 W/m2
11:56 45.0 °F 40.4 °F 29.41 in SW 18.0 mph 27.0 mph 84 % 0.00 in 44 W/m2
12:01 45.1 °F 40.6 °F 29.42 in SW 19.0 mph 32.0 mph 84 % 0.00 in 26 W/m2
12:06 45.1 °F 40.3 °F 29.42 in SW 19.0 mph 30.0 mph 83 % 0.00 in 37 W/m2
12:11 45.1 °F 40.6 °F 29.41 in SW 14.0 mph 19.0 mph 84 % 0.00 in 39 W/m2
12:16 45.0 °F 40.4 °F 29.42 in SW 13.0 mph 20.0 mph 84 % 0.00 in 39 W/m2
12:21 45.0 °F 40.4 °F 29.43 in SW 15.0 mph 27.0 mph 84 % 0.00 in 40 W/m2
12:26 45.1 °F 40.6 °F 29.43 in SW 17.0 mph 28.0 mph 84 % 0.00 in 65 W/m2
12:31 45.1 °F 40.6 °F 29.42 in WSW 14.0 mph 22.0 mph 84 % 0.00 in 114 W/m2
12:36 45.3 °F 40.5 °F 29.41 in SW 13.0 mph 20.0 mph 83 % 0.00 in 60 W/m2
12:41 45.3 °F 40.5 °F 29.43 in SW 14.0 mph 21.0 mph 83 % 0.00 in 60 W/m2
12:46 45.5 °F 40.6 °F 29.44 in SW 16.0 mph 23.0 mph 83 % 0.00 in 67 W/m2
12:51 45.7 °F 40.5 °F 29.42 in SW 13.0 mph 22.0 mph 82 % 0.00 in 91 W/m2
12:56 45.7 °F 40.5 °F 29.43 in SW 16.0 mph 25.0 mph 82 % 0.00 in 113 W/m2
13:01 45.9 °F 40.7 °F 29.44 in WSW 14.0 mph 21.0 mph 82 % 0.00 in 104 W/m2
13:02 45.9 °F 40.7 °F 29.44 in SW 15.0 mph 22.0 mph 82 % 0.00 in 102 W/m2
13:07 46.0 °F 40.9 °F 29.44 in SW 15.0 mph 29.0 mph 82 % 0.00 in 116 W/m2
13:12 46.2 °F 41.0 °F 29.42 in SW 13.0 mph 20.0 mph 82 % 0.00 in 95 W/m2
13:17 46.2 °F 41.0 °F 29.43 in SW 14.0 mph 23.0 mph 82 % 0.00 in 98 W/m2
13:22 46.4 °F 40.9 °F 29.43 in SW 14.0 mph 23.0 mph 81 % 0.00 in 84 W/m2
13:27 46.4 °F 41.2 °F 29.44 in SW 16.0 mph 30.0 mph 82 % 0.00 in 100 W/m2
13:37 46.6 °F 41.4 °F 29.42 in SW 10.0 mph 20.0 mph 82 % 0.00 in 107 W/m2
13:42 46.8 °F 41.6 °F 29.43 in SW 11.0 mph 20.0 mph 82 % 0.00 in 95 W/m2
13:47 46.8 °F 41.6 °F 29.43 in SW 14.0 mph 22.0 mph 82 % 0.00 in 76 W/m2
13:52 46.8 °F 41.6 °F 29.42 in WSW 12.0 mph 19.0 mph 82 % 0.00 in 97 W/m2
13:57 46.8 °F 41.6 °F 29.42 in SW 13.0 mph 22.0 mph 82 % 0.00 in 90 W/m2
14:07 46.9 °F 41.4 °F 29.44 in SW 16.0 mph 27.0 mph 81 % 0.00 in 109 W/m2
14:12 47.1 °F 41.6 °F 29.43 in SW 13.0 mph 23.0 mph 81 % 0.00 in 111 W/m2
14:17 47.1 °F 41.6 °F 29.42 in SW 11.0 mph 18.0 mph 81 % 0.00 in 79 W/m2
14:22 47.1 °F 41.6 °F 29.43 in SW 14.0 mph 25.0 mph 81 % 0.00 in 95 W/m2
14:27 47.1 °F 41.6 °F 29.43 in SW 12.0 mph 20.0 mph 81 % 0.00 in 67 W/m2
14:32 47.1 °F 41.6 °F 29.43 in SW 13.0 mph 21.0 mph 81 % 0.00 in 72 W/m2
14:37 47.1 °F 41.6 °F 29.43 in SW 9.0 mph 15.0 mph 81 % 0.00 in 74 W/m2
14:42 47.1 °F 41.6 °F 29.43 in SW 13.0 mph 21.0 mph 81 % 0.00 in 63 W/m2
14:47 47.1 °F 41.6 °F 29.43 in SW 12.0 mph 20.0 mph 81 % 0.00 in 54 W/m2
14:52 47.1 °F 41.6 °F 29.43 in SW 13.0 mph 19.0 mph 81 % 0.00 in 42 W/m2
14:57 47.1 °F 41.6 °F 29.44 in SW 15.0 mph 21.0 mph 81 % 0.00 in 53 W/m2
15:08 47.1 °F 41.9 °F 29.43 in SW 13.0 mph 19.0 mph 82 % 0.00 in 35 W/m2
15:13 47.1 °F 41.9 °F 29.44 in SW 12.0 mph 18.0 mph 82 % 0.00 in 54 W/m2
15:18 46.9 °F 41.7 °F 29.44 in WSW 12.0 mph 20.0 mph 82 % 0.00 in 60 W/m2
15:23 46.9 °F 41.7 °F 29.44 in WSW 9.0 mph 13.0 mph 82 % 0.00 in 25 W/m2
15:28 46.9 °F 41.7 °F 29.44 in SW 12.0 mph 18.0 mph 82 % 0.00 in 26 W/m2
15:33 46.8 °F 41.6 °F 29.44 in SW 14.0 mph 22.0 mph 82 % 0.00 in 47 W/m2
15:38 46.8 °F 41.6 °F 29.44 in WSW 10.0 mph 20.0 mph 82 % 0.00 in 30 W/m2
15:43 46.4 °F 41.5 °F 29.44 in WSW 14.0 mph 24.0 mph 83 % 0.00 in 37 W/m2
15:48 46.4 °F 41.2 °F 29.44 in SW 10.0 mph 15.0 mph 82 % 0.00 in 33 W/m2
15:53 46.4 °F 41.2 °F 29.44 in WSW 10.0 mph 15.0 mph 82 % 0.00 in 26 W/m2
15:58 46.4 °F 41.2 °F 29.44 in SW 10.0 mph 20.0 mph 82 % 0.00 in 23 W/m2
16:03 46.4 °F 41.2 °F 29.45 in WSW 15.0 mph 21.0 mph 82 % 0.00 in 21 W/m2
16:13 46.6 °F 40.7 °F 29.45 in WSW 13.0 mph 21.0 mph 80 % 0.00 in 14 W/m2
16:18 46.6 °F 40.4 °F 29.45 in WSW 12.0 mph 21.0 mph 79 % 0.00 in 11 W/m2
16:23 46.6 °F 40.7 °F 29.45 in WSW 13.0 mph 20.0 mph 80 % 0.00 in 9 W/m2
16:28 46.4 °F 40.6 °F 29.45 in WSW 13.0 mph 19.0 mph 80 % 0.00 in 7 W/m2
16:38 46.2 °F 40.4 °F 29.45 in SW 12.0 mph 19.0 mph 80 % 0.00 in 5 W/m2
16:43 46.2 °F 40.4 °F 29.45 in SW 14.0 mph 21.0 mph 80 % 0.00 in 0 W/m2
16:48 46.2 °F 40.4 °F 29.45 in SW 12.0 mph 16.0 mph 80 % 0.00 in 0 W/m2
16:58 46.2 °F 39.7 °F 29.46 in SW 17.0 mph 26.0 mph 78 % 0.00 in 0 W/m2
17:03 46.2 °F 39.7 °F 29.46 in SW 15.0 mph 27.0 mph 78 % 0.00 in 0 W/m2
17:08 46.0 °F 39.6 °F 29.46 in WSW 13.0 mph 18.0 mph 78 % 0.00 in 0 W/m2
17:13 45.9 °F 39.4 °F 29.46 in SW 14.0 mph 22.0 mph 78 % 0.00 in 0 W/m2
17:18 45.9 °F 39.7 °F 29.46 in WSW 13.0 mph 19.0 mph 79 % 0.00 in 0 W/m2
17:28 45.7 °F 39.5 °F 29.46 in WSW 15.0 mph 25.0 mph 79 % 0.00 in 0 W/m2
17:33 45.7 °F 39.5 °F 29.46 in SW 14.0 mph 21.0 mph 79 % 0.00 in 0 W/m2
17:38 45.5 °F 39.4 °F 29.47 in SW 13.0 mph 19.0 mph 79 % 0.00 in 0 W/m2
17:48 45.3 °F 39.5 °F 29.47 in WSW 13.0 mph 22.0 mph 80 % 0.00 in 0 W/m2
17:53 45.3 °F 39.5 °F 29.47 in SW 10.0 mph 15.0 mph 80 % 0.00 in 0 W/m2
18:13 45.1 °F 39.7 °F 29.48 in WSW 10.0 mph 16.0 mph 81 % 0.00 in 0 W/m2
18:19 45.1 °F 39.7 °F 29.48 in WSW 11.0 mph 16.0 mph 81 % 0.00 in 0 W/m2
18:23 45.0 °F 39.5 °F 29.48 in WSW 10.0 mph 18.0 mph 81 % 0.00 in 0 W/m2
18:29 45.0 °F 39.5 °F 29.48 in SW 12.0 mph 20.0 mph 81 % 0.00 in 0 W/m2
18:34 45.0 °F 39.5 °F 29.49 in WSW 10.0 mph 15.0 mph 81 % 0.00 in 0 W/m2
18:39 45.0 °F 39.5 °F 29.49 in WSW 11.0 mph 18.0 mph 81 % 0.00 in 0 W/m2
18:49 44.8 °F 39.0 °F 29.49 in WSW 11.0 mph 19.0 mph 80 % 0.00 in 0 W/m2
18:54 44.8 °F 39.0 °F 29.49 in WSW 11.0 mph 18.0 mph 80 % 0.00 in 0 W/m2
18:59 44.8 °F 39.0 °F 29.49 in WSW 11.0 mph 22.0 mph 80 % 0.00 in 0 W/m2
19:04 44.8 °F 39.0 °F 29.50 in SW 13.0 mph 23.0 mph 80 % 0.00 in 0 W/m2
19:09 44.8 °F 39.0 °F 29.50 in WSW 14.0 mph 22.0 mph 80 % 0.00 in 0 W/m2
19:14 44.8 °F 39.0 °F 29.50 in WSW 11.0 mph 15.0 mph 80 % 0.00 in 0 W/m2
19:19 44.6 °F 38.8 °F 29.50 in WSW 12.0 mph 20.0 mph 80 % 0.00 in 0 W/m2
19:24 44.6 °F 38.8 °F 29.50 in SW 11.0 mph 18.0 mph 80 % 0.00 in 0 W/m2
19:29 44.4 °F 38.3 °F 29.50 in SW 11.0 mph 16.0 mph 79 % 0.00 in 0 W/m2
19:34 44.4 °F 38.3 °F 29.50 in WSW 13.0 mph 22.0 mph 79 % 0.00 in 0 W/m2
19:44 44.2 °F 38.5 °F 29.50 in WSW 9.0 mph 18.0 mph 80 % 0.00 in 0 W/m2
19:54 44.1 °F 38.3 °F 29.50 in SW 11.0 mph 20.0 mph 80 % 0.00 in 0 W/m2
19:59 44.2 °F 38.5 °F 29.50 in WSW 13.0 mph 23.0 mph 80 % 0.00 in 0 W/m2
20:04 44.2 °F 38.5 °F 29.50 in WSW 14.0 mph 24.0 mph 80 % 0.00 in 0 W/m2
20:09 44.2 °F 38.5 °F 29.51 in WSW 12.0 mph 18.0 mph 80 % 0.00 in 0 W/m2
20:14 44.4 °F 39.0 °F 29.51 in WSW 16.0 mph 23.0 mph 81 % 0.00 in 0 W/m2
20:19 44.8 °F 39.3 °F 29.51 in WSW 15.0 mph 27.0 mph 81 % 0.00 in 0 W/m2
20:24 44.6 °F 39.4 °F 29.51 in WSW 15.0 mph 27.0 mph 82 % 0.00 in 0 W/m2
20:29 44.2 °F 39.4 °F 29.51 in SW 14.0 mph 23.0 mph 83 % 0.00 in 0 W/m2
20:34 44.2 °F 39.4 °F 29.51 in WSW 14.0 mph 22.0 mph 83 % 0.00 in 0 W/m2
20:39 44.2 °F 39.1 °F 29.52 in WSW 14.0 mph 22.0 mph 82 % 0.00 in 0 W/m2
20:44 44.2 °F 39.1 °F 29.52 in SW 15.0 mph 25.0 mph 82 % 0.00 in 0 W/m2
20:49 44.2 °F 39.1 °F 29.52 in SW 12.0 mph 20.0 mph 82 % 0.00 in 0 W/m2
20:54 44.1 °F 38.9 °F 29.52 in WSW 12.0 mph 18.0 mph 82 % 0.00 in 0 W/m2
20:59 44.1 °F 38.9 °F 29.52 in SW 11.0 mph 18.0 mph 82 % 0.00 in 0 W/m2
21:04 44.1 °F 38.9 °F 29.52 in SW 14.0 mph 20.0 mph 82 % 0.00 in 0 W/m2
21:09 43.9 °F 38.7 °F 29.53 in SW 10.0 mph 19.0 mph 82 % 0.00 in 0 W/m2
21:14 43.9 °F 38.7 °F 29.52 in SW 13.0 mph 20.0 mph 82 % 0.00 in 0 W/m2
21:19 43.9 °F 38.7 °F 29.52 in SW 9.0 mph 16.0 mph 82 % 0.00 in 0 W/m2
21:24 43.9 °F 38.7 °F 29.52 in SW 13.0 mph 20.0 mph 82 % 0.00 in 0 W/m2
21:29 43.9 °F 38.7 °F 29.52 in WSW 11.0 mph 20.0 mph 82 % 0.00 in 0 W/m2
21:34 43.7 °F 38.6 °F 29.52 in WSW 12.0 mph 20.0 mph 82 % 0.00 in 0 W/m2
21:39 43.5 °F 38.4 °F 29.52 in WSW 12.0 mph 19.0 mph 82 % 0.00 in 0 W/m2
21:44 43.5 °F 38.4 °F 29.52 in SW 11.0 mph 16.0 mph 82 % 0.00 in 0 W/m2
21:49 43.5 °F 38.7 °F 29.53 in SW 11.0 mph 18.0 mph 83 % 0.00 in 0 W/m2
21:54 43.3 °F 38.5 °F 29.53 in WSW 11.0 mph 18.0 mph 83 % 0.00 in 0 W/m2
21:59 43.3 °F 38.5 °F 29.53 in WSW 11.0 mph 18.0 mph 83 % 0.00 in 0 W/m2
22:04 43.3 °F 38.5 °F 29.53 in SW 12.0 mph 20.0 mph 83 % 0.00 in 0 W/m2
22:09 43.3 °F 38.5 °F 29.53 in SW 13.0 mph 21.0 mph 83 % 0.00 in 0 W/m2
22:14 43.3 °F 38.5 °F 29.53 in WSW 13.0 mph 20.0 mph 83 % 0.00 in 0 W/m2
22:19 43.3 °F 38.5 °F 29.54 in WSW 15.0 mph 24.0 mph 83 % 0.00 in 0 W/m2
22:24 43.3 °F 38.5 °F 29.54 in SW 15.0 mph 23.0 mph 83 % 0.00 in 0 W/m2
22:29 43.3 °F 38.5 °F 29.54 in SW 11.0 mph 16.0 mph 83 % 0.00 in 0 W/m2
22:34 43.2 °F 38.3 °F 29.54 in SW 12.0 mph 19.0 mph 83 % 0.00 in 0 W/m2
22:39 43.2 °F 38.3 °F 29.54 in SW 13.0 mph 20.0 mph 83 % 0.00 in 0 W/m2
22:44 43.0 °F 38.2 °F 29.54 in WSW 14.0 mph 21.0 mph 83 % 0.00 in 0 W/m2
22:50 43.0 °F 38.2 °F 29.54 in WSW 13.0 mph 21.0 mph 83 % 0.00 in 0 W/m2
22:55 43.0 °F 38.2 °F 29.54 in SW 14.0 mph 26.0 mph 83 % 0.00 in 0 W/m2
23:00 43.2 °F 38.3 °F 29.54 in WSW 11.0 mph 18.0 mph 83 % 0.00 in 0 W/m2
23:05 43.2 °F 38.3 °F 29.54 in WSW 14.0 mph 21.0 mph 83 % 0.00 in 0 W/m2
23:10 43.2 °F 38.0 °F 29.54 in SW 13.0 mph 20.0 mph 82 % 0.00 in 0 W/m2
23:15 43.2 °F 37.7 °F 29.54 in WSW 13.0 mph 20.0 mph 81 % 0.00 in 0 W/m2
23:20 43.3 °F 37.9 °F 29.54 in SW 16.0 mph 24.0 mph 81 % 0.00 in 0 W/m2
23:25 43.3 °F 37.9 °F 29.54 in SW 12.0 mph 20.0 mph 81 % 0.00 in 0 W/m2
23:30 43.3 °F 37.9 °F 29.54 in WSW 15.0 mph 20.0 mph 81 % 0.00 in 0 W/m2
23:35 43.3 °F 38.2 °F 29.55 in WSW 14.0 mph 22.0 mph 82 % 0.00 in 0 W/m2
23:40 43.2 °F 38.0 °F 29.55 in SW 13.0 mph 20.0 mph 82 % 0.00 in 0 W/m2
23:45 43.2 °F 38.0 °F 29.55 in WSW 15.0 mph 26.0 mph 82 % 0.00 in 0 W/m2
23:50 43.2 °F 38.0 °F 29.55 in SW 13.0 mph 20.0 mph 82 % 0.00 in 0 W/m2
23:55 43.3 °F 38.2 °F 29.55 in SW 12.0 mph 19.0 mph 82 % 0.00 in 0 W/m2
Delerius-Weather
Compliments of Weather Underground - 2 mb

Data updates at regular intervals.